createdAt,value
2017-07-31T00:00:44.384Z,65.9
2017-07-31T00:01:46.538Z,66.2
2017-07-31T00:02:48.342Z,65.9
2017-07-31T00:03:50.018Z,66.1
2017-07-31T00:04:51.808Z,65.9
2017-07-31T00:05:54.417Z,66.7
2017-07-31T00:06:56.593Z,66.6
2017-07-31T00:07:58.358Z,66.7
2017-07-31T00:09:00.204Z,66.7
2017-07-31T00:10:01.935Z,67.0
2017-07-31T00:11:03.847Z,67.1
2017-07-31T00:12:06.371Z,67.3
2017-07-31T00:13:10.361Z,67.4
2017-07-31T00:14:12.249Z,67.5
2017-07-31T00:15:14.150Z,67.4
2017-07-31T00:16:16.010Z,67.6
2017-07-31T00:17:17.887Z,67.9
2017-07-31T00:18:20.048Z,68.5
2017-07-31T00:19:22.616Z,68.4
2017-07-31T00:20:24.436Z,68.7
2017-07-31T00:21:26.346Z,68.9
2017-07-31T00:22:28.230Z,68.7
2017-07-31T00:23:30.464Z,69.0
2017-07-31T00:24:32.360Z,68.8
2017-07-31T00:25:34.166Z,69.8
2017-07-31T00:26:35.954Z,69.9
2017-07-31T00:27:37.753Z,70.8
2017-07-31T00:28:39.963Z,70.9
2017-07-31T00:29:41.888Z,71.2
2017-07-31T00:30:43.669Z,71.3
2017-07-31T00:31:45.446Z,71.6
2017-07-31T00:32:47.199Z,72.1
2017-07-31T00:33:48.988Z,72.2
2017-07-31T00:34:50.764Z,72.0
2017-07-31T00:35:52.510Z,72.4
2017-07-31T00:36:54.341Z,71.4
2017-07-31T00:37:56.149Z,70.9
2017-07-31T00:38:57.904Z,71.3
2017-07-31T00:39:59.997Z,71.4
2017-07-31T00:41:01.746Z,71.4
2017-07-31T00:42:03.553Z,71.7
2017-07-31T00:43:05.350Z,71.9
2017-07-31T00:44:07.155Z,71.7
2017-07-31T00:45:09.340Z,71.8
2017-07-31T00:46:11.115Z,71.7
2017-07-31T00:47:13.103Z,71.2
2017-07-31T00:48:14.855Z,71.3
2017-07-31T00:49:16.602Z,71.4
2017-07-31T00:50:18.808Z,71.2
2017-07-31T00:51:20.541Z,71.2
2017-07-31T00:52:22.254Z,70.8
2017-07-31T00:53:23.988Z,70.8
2017-07-31T00:54:25.750Z,71.0
2017-07-31T00:55:27.915Z,71.3
2017-07-31T00:56:29.692Z,71.0
2017-07-31T00:57:31.458Z,71.0
2017-07-31T00:58:33.225Z,70.7
2017-07-31T00:59:35.010Z,70.8
2017-07-31T01:00:37.005Z,70.6
2017-07-31T01:01:38.771Z,70.9
2017-07-31T01:02:40.500Z,71.0
2017-07-31T01:03:42.233Z,71.8
2017-07-31T01:04:43.941Z,71.4
2017-07-31T01:05:46.047Z,71.5
2017-07-31T01:06:47.775Z,72.3
2017-07-31T01:07:49.497Z,72.0
2017-07-31T01:08:51.201Z,72.5
2017-07-31T01:09:52.929Z,71.9
2017-07-31T01:10:54.993Z,72.4
2017-07-31T01:11:56.715Z,72.1
2017-07-31T01:12:58.415Z,72.0
2017-07-31T01:14:00.144Z,71.6
2017-07-31T01:15:01.882Z,71.8
2017-07-31T01:16:03.665Z,72.0
2017-07-31T01:17:05.779Z,72.7
2017-07-31T01:18:07.511Z,72.8
2017-07-31T01:19:09.229Z,72.7
2017-07-31T01:20:10.937Z,72.7
2017-07-31T01:21:12.624Z,73.5
2017-07-31T01:22:14.730Z,73.4
2017-07-31T01:23:16.430Z,73.6
2017-07-31T01:24:18.149Z,73.7
2017-07-31T01:25:19.857Z,73.7
2017-07-31T01:26:21.582Z,74.0
2017-07-31T01:27:23.704Z,74.2
2017-07-31T01:28:25.445Z,74.1
2017-07-31T01:29:27.152Z,73.7
2017-07-31T01:30:28.854Z,73.7
2017-07-31T01:31:30.554Z,73.8
2017-07-31T01:32:32.313Z,73.5
2017-07-31T01:33:34.025Z,73.5
2017-07-31T01:34:35.742Z,73.3
2017-07-31T01:35:37.466Z,73.4
2017-07-31T01:36:39.203Z,72.9
2017-07-31T01:37:41.328Z,73.3
2017-07-31T01:38:43.038Z,72.8
2017-07-31T01:39:44.746Z,73.0
2017-07-31T01:40:46.461Z,72.9
2017-07-31T01:41:48.165Z,72.5
2017-07-31T01:42:50.290Z,72.7
2017-07-31T01:43:52.016Z,72.7
2017-07-31T01:44:53.739Z,72.4
2017-07-31T01:45:55.433Z,72.1
2017-07-31T01:46:57.141Z,72.5
2017-07-31T01:47:59.196Z,72.2
2017-07-31T01:49:00.898Z,72.1
2017-07-31T01:50:02.611Z,72.2
2017-07-31T01:51:04.332Z,72.3
2017-07-31T01:52:06.045Z,72.2
2017-07-31T01:53:08.173Z,72.2
2017-07-31T01:54:09.886Z,72.4
2017-07-31T01:55:11.592Z,72.4
2017-07-31T01:56:13.280Z,73.9
2017-07-31T01:57:15.036Z,77.2
2017-07-31T01:58:17.174Z,76.1
2017-07-31T01:59:18.878Z,78.2
2017-07-31T02:00:20.585Z,76.6
2017-07-31T02:01:22.283Z,76.2
2017-07-31T02:02:23.994Z,76.3
2017-07-31T02:03:25.725Z,75.1
2017-07-31T02:04:27.447Z,75.1
2017-07-31T02:05:29.158Z,74.8
2017-07-31T02:06:30.854Z,74.9
2017-07-31T02:07:32.555Z,74.8
2017-07-31T02:08:34.714Z,75.0
2017-07-31T02:09:36.415Z,75.1
2017-07-31T02:10:38.119Z,75.1
2017-07-31T02:11:39.836Z,74.8
2017-07-31T02:12:41.563Z,76.1
2017-07-31T02:13:43.719Z,77.1
2017-07-31T02:14:45.425Z,74.8
2017-07-31T02:15:47.155Z,74.4
2017-07-31T02:16:48.886Z,74.5
2017-07-31T02:17:50.614Z,74.1
2017-07-31T02:18:52.785Z,74.5
2017-07-31T02:19:54.502Z,74.2
2017-07-31T02:20:56.237Z,73.9
2017-07-31T02:21:57.964Z,73.8
2017-07-31T02:22:59.654Z,73.7
2017-07-31T02:24:01.734Z,73.8
2017-07-31T02:25:03.477Z,73.6
2017-07-31T02:26:05.204Z,73.7
2017-07-31T02:27:06.908Z,73.6
2017-07-31T02:28:08.638Z,73.8
2017-07-31T02:29:10.807Z,73.2
2017-07-31T02:30:12.525Z,73.4
2017-07-31T02:31:14.218Z,73.4
2017-07-31T02:32:15.955Z,74.1
2017-07-31T02:33:17.656Z,74.0
2017-07-31T02:34:20.107Z,73.9
2017-07-31T02:35:21.849Z,74.1
2017-07-31T02:36:23.778Z,73.8
2017-07-31T02:37:25.534Z,73.6
2017-07-31T02:38:27.359Z,73.8
2017-07-31T02:39:29.101Z,73.7
2017-07-31T02:40:31.080Z,74.0
2017-07-31T02:41:32.779Z,74.1
2017-07-31T02:42:34.561Z,73.9
2017-07-31T02:43:36.351Z,73.9
2017-07-31T02:44:38.107Z,73.8
2017-07-31T02:45:40.307Z,73.8
2017-07-31T02:46:42.075Z,73.7
2017-07-31T02:47:43.848Z,73.6
2017-07-31T02:48:45.602Z,73.3
2017-07-31T02:49:47.332Z,73.4
2017-07-31T02:50:49.287Z,73.2
2017-07-31T02:51:51.082Z,73.2
2017-07-31T02:52:52.849Z,73.4
2017-07-31T02:53:54.640Z,73.1
2017-07-31T02:54:56.429Z,73.4
2017-07-31T02:55:58.644Z,73.5
2017-07-31T02:57:00.416Z,73.0
2017-07-31T02:58:02.202Z,73.3
2017-07-31T02:59:03.949Z,73.4
2017-07-31T03:00:05.736Z,73.3
2017-07-31T03:01:07.559Z,73.7
2017-07-31T03:02:09.353Z,73.9
2017-07-31T03:03:11.145Z,73.8
2017-07-31T03:04:12.890Z,74.0
2017-07-31T03:05:14.788Z,73.5
2017-07-31T03:06:16.553Z,73.8
2017-07-31T03:07:18.335Z,73.6
2017-07-31T03:08:20.135Z,73.7
2017-07-31T03:09:21.933Z,73.5
2017-07-31T03:10:24.005Z,73.7
2017-07-31T03:11:25.757Z,73.5
2017-07-31T03:12:27.482Z,73.9
2017-07-31T03:13:29.244Z,73.7
2017-07-31T03:14:30.993Z,73.9
2017-07-31T03:15:32.781Z,73.5
2017-07-31T03:16:34.574Z,73.5
2017-07-31T03:17:36.364Z,73.6
2017-07-31T03:18:38.160Z,74.1
2017-07-31T03:19:39.914Z,73.5
2017-07-31T03:20:41.941Z,73.1
2017-07-31T03:21:43.719Z,73.0
2017-07-31T03:22:45.473Z,73.3
2017-07-31T03:23:47.246Z,73.5
2017-07-31T03:24:49.045Z,73.5
2017-07-31T03:25:51.186Z,73.7
2017-07-31T03:26:52.960Z,73.7
2017-07-31T03:27:54.749Z,73.3
2017-07-31T03:28:56.536Z,73.7
2017-07-31T03:29:58.321Z,74.1
2017-07-31T03:31:00.355Z,73.5
2017-07-31T03:32:02.161Z,73.5
2017-07-31T03:33:03.960Z,73.4
2017-07-31T03:34:05.753Z,73.3
2017-07-31T03:35:07.555Z,73.4
2017-07-31T03:36:09.770Z,73.3
2017-07-31T03:37:11.515Z,73.4
2017-07-31T03:38:13.338Z,74.0
2017-07-31T03:39:15.127Z,73.4
2017-07-31T03:40:16.903Z,73.6
2017-07-31T03:41:19.058Z,74.4
2017-07-31T03:42:20.827Z,74.5
2017-07-31T03:43:22.738Z,74.9
2017-07-31T03:44:24.536Z,75.3
2017-07-31T03:45:26.319Z,74.9
2017-07-31T03:46:28.116Z,74.8
2017-07-31T03:47:29.913Z,74.5
2017-07-31T03:48:31.690Z,74.7
2017-07-31T03:49:33.466Z,74.7
2017-07-31T03:50:35.259Z,74.8
2017-07-31T03:51:37.279Z,74.8
2017-07-31T03:52:39.047Z,74.5
2017-07-31T03:53:40.812Z,75.0
2017-07-31T03:54:42.619Z,74.7
2017-07-31T03:55:44.412Z,74.9
2017-07-31T03:56:46.240Z,74.4
2017-07-31T03:57:48.039Z,74.9
2017-07-31T03:58:49.785Z,74.3
2017-07-31T03:59:51.559Z,74.5
2017-07-31T04:00:53.326Z,74.3
2017-07-31T04:01:55.477Z,74.1
2017-07-31T04:02:57.256Z,74.1
2017-07-31T04:03:59.600Z,74.4
2017-07-31T04:05:01.436Z,74.2
2017-07-31T04:06:03.176Z,74.2
2017-07-31T04:07:05.224Z,74.1
2017-07-31T04:08:06.968Z,74.5
2017-07-31T04:09:08.717Z,74.2
2017-07-31T04:10:10.459Z,74.5
2017-07-31T04:11:12.164Z,74.5
2017-07-31T04:12:14.269Z,74.0
2017-07-31T04:13:15.983Z,73.8
2017-07-31T04:14:17.697Z,74.4
2017-07-31T04:15:19.461Z,73.8
2017-07-31T04:16:21.250Z,74.4
2017-07-31T04:17:23.382Z,73.8
2017-07-31T04:18:25.140Z,73.9
2017-07-31T04:19:26.917Z,74.2
2017-07-31T04:20:28.700Z,73.4
2017-07-31T04:21:30.510Z,73.8
2017-07-31T04:22:32.781Z,74.0
2017-07-31T04:23:34.562Z,73.7
2017-07-31T04:24:36.327Z,73.2
2017-07-31T04:25:38.129Z,73.2
2017-07-31T04:26:39.910Z,73.1
2017-07-31T04:27:42.146Z,73.1
2017-07-31T04:28:43.890Z,73.0
2017-07-31T04:29:45.652Z,73.6
2017-07-31T04:30:47.394Z,73.7
2017-07-31T04:31:49.116Z,73.3
2017-07-31T04:32:51.223Z,74.1
2017-07-31T04:33:52.960Z,74.1
2017-07-31T04:34:54.695Z,74.4
2017-07-31T04:35:56.391Z,74.7
2017-07-31T04:36:58.192Z,74.9
2017-07-31T04:38:00.360Z,74.9
2017-07-31T04:39:02.155Z,74.7
2017-07-31T04:40:03.873Z,74.7
2017-07-31T04:41:05.613Z,74.7
2017-07-31T04:42:07.324Z,74.9
2017-07-31T04:43:09.684Z,75.1
2017-07-31T04:44:11.648Z,75.5
2017-07-31T04:45:13.673Z,74.9
2017-07-31T04:46:15.673Z,74.6
2017-07-31T04:47:17.713Z,74.7
2017-07-31T04:48:20.179Z,74.4
2017-07-31T04:49:22.193Z,74.7
2017-07-31T04:50:24.288Z,75.0
2017-07-31T04:51:26.301Z,74.5
2017-07-31T04:52:28.322Z,75.1
2017-07-31T04:53:30.760Z,74.6
2017-07-31T04:54:32.781Z,74.3
2017-07-31T04:55:34.816Z,74.1
2017-07-31T04:56:36.800Z,73.9
2017-07-31T04:57:38.812Z,74.0
2017-07-31T04:58:41.081Z,74.0
2017-07-31T04:59:43.104Z,73.9
2017-07-31T05:00:45.121Z,74.1
2017-07-31T05:01:47.115Z,74.1
2017-07-31T05:02:49.123Z,73.9
2017-07-31T05:03:51.341Z,74.0
2017-07-31T05:04:53.369Z,74.1
2017-07-31T05:05:55.385Z,74.4
2017-07-31T05:06:57.418Z,74.4
2017-07-31T05:07:59.707Z,74.2
2017-07-31T05:09:02.164Z,74.4
2017-07-31T05:10:04.134Z,75.1
2017-07-31T05:11:06.137Z,74.8
2017-07-31T05:12:08.128Z,74.1
2017-07-31T05:13:10.142Z,74.1
2017-07-31T05:14:12.546Z,74.9
2017-07-31T05:15:14.499Z,74.4
2017-07-31T05:16:16.391Z,74.9
2017-07-31T05:17:18.347Z,74.7
2017-07-31T05:18:20.291Z,74.7
2017-07-31T05:19:22.444Z,74.8
2017-07-31T05:20:24.348Z,74.7
2017-07-31T05:21:26.299Z,75.4
2017-07-31T05:22:28.055Z,75.7
2017-07-31T05:23:29.793Z,76.0
2017-07-31T05:24:31.744Z,75.8
2017-07-31T05:25:33.602Z,75.8
2017-07-31T05:26:35.571Z,75.5
2017-07-31T05:27:37.520Z,75.6
2017-07-31T05:28:39.498Z,75.6
2017-07-31T05:29:41.471Z,75.8
2017-07-31T05:30:43.479Z,75.8
2017-07-31T05:32:27.248Z,75.8
2017-07-31T05:33:29.614Z,75.7
2017-07-31T05:34:31.628Z,76.2
2017-07-31T05:35:33.598Z,75.6
2017-07-31T05:36:35.528Z,75.8
2017-07-31T05:37:37.455Z,75.8
2017-07-31T05:38:39.395Z,76.2
2017-07-31T05:39:41.807Z,76.3
2017-07-31T05:40:43.776Z,76.3
2017-07-31T05:41:45.754Z,75.8
2017-07-31T05:42:47.745Z,76.0
2017-07-31T05:43:49.764Z,75.9
2017-07-31T05:44:51.842Z,76.7
2017-07-31T05:45:53.821Z,76.9
2017-07-31T05:46:56.073Z,76.0
2017-07-31T05:47:58.016Z,76.4
2017-07-31T05:49:00.149Z,76.2
2017-07-31T05:50:02.391Z,75.9
2017-07-31T05:51:04.331Z,75.8
2017-07-31T05:52:06.273Z,75.8
2017-07-31T05:53:08.232Z,75.7
2017-07-31T05:54:10.234Z,76.0
2017-07-31T05:55:12.676Z,75.5
2017-07-31T05:56:14.615Z,75.3
2017-07-31T05:57:16.507Z,75.2
2017-07-31T05:58:18.394Z,75.2
2017-07-31T05:59:20.305Z,75.0
2017-07-31T06:00:22.269Z,75.0
2017-07-31T06:01:24.203Z,75.0
2017-07-31T06:02:26.150Z,75.0
2017-07-31T06:03:28.143Z,75.1
2017-07-31T06:04:30.068Z,75.2
2017-07-31T06:05:32.336Z,75.7
2017-07-31T06:06:34.309Z,75.7
2017-07-31T06:07:36.192Z,76.0
2017-07-31T06:08:38.190Z,76.3
2017-07-31T06:09:40.077Z,76.3
2017-07-31T06:10:42.434Z,76.1
2017-07-31T06:11:44.370Z,76.0
2017-07-31T06:12:46.342Z,76.5
2017-07-31T06:13:48.298Z,76.1
2017-07-31T06:14:50.209Z,75.9
2017-07-31T06:15:52.520Z,76.1
2017-07-31T06:16:54.423Z,76.6
2017-07-31T06:17:56.355Z,76.6
2017-07-31T06:18:58.272Z,76.5
2017-07-31T06:20:00.178Z,76.3
2017-07-31T06:21:02.467Z,76.6
2017-07-31T06:22:04.337Z,76.5
2017-07-31T06:23:06.223Z,76.6
2017-07-31T06:24:08.127Z,76.3
2017-07-31T06:25:10.043Z,76.5
2017-07-31T06:26:12.250Z,76.7
2017-07-31T06:27:14.184Z,76.6
2017-07-31T06:28:16.103Z,76.5
2017-07-31T06:29:17.959Z,76.6
2017-07-31T06:30:19.859Z,76.5
2017-07-31T06:31:21.935Z,76.6
2017-07-31T06:32:23.775Z,76.8
2017-07-31T06:33:25.630Z,76.8
2017-07-31T06:34:27.462Z,76.6
2017-07-31T06:35:29.320Z,76.5
2017-07-31T06:36:31.603Z,76.6
2017-07-31T06:37:33.457Z,76.6
2017-07-31T06:38:35.291Z,76.8
2017-07-31T06:39:37.104Z,76.2
2017-07-31T06:40:38.963Z,76.0
2017-07-31T06:41:41.106Z,76.7
2017-07-31T06:42:42.931Z,75.9
2017-07-31T06:43:44.780Z,76.6
2017-07-31T06:44:46.633Z,76.4
2017-07-31T06:45:48.462Z,76.6
2017-07-31T06:46:50.607Z,76.8
2017-07-31T06:47:52.386Z,76.2
2017-07-31T06:48:54.327Z,76.6
2017-07-31T06:49:56.084Z,76.6
2017-07-31T06:50:57.871Z,76.8
2017-07-31T06:51:59.687Z,76.9
2017-07-31T06:53:01.553Z,76.8
2017-07-31T06:54:03.365Z,76.8
2017-07-31T06:55:05.181Z,76.7
2017-07-31T06:56:06.969Z,77.6
2017-07-31T06:57:08.710Z,77.3
2017-07-31T06:58:10.850Z,77.6
2017-07-31T06:59:12.612Z,77.4
2017-07-31T07:00:14.347Z,77.4
2017-07-31T07:01:16.205Z,77.0
2017-07-31T07:02:17.884Z,77.0
2017-07-31T07:03:19.960Z,77.9
2017-07-31T07:04:21.668Z,76.9
2017-07-31T07:05:23.381Z,77.2
2017-07-31T07:06:25.119Z,77.3
2017-07-31T07:07:26.829Z,77.6
2017-07-31T07:08:28.884Z,77.3
2017-07-31T07:09:30.613Z,77.5
2017-07-31T07:10:32.313Z,77.4
2017-07-31T07:11:34.033Z,76.8
2017-07-31T07:12:35.805Z,76.8
2017-07-31T07:13:37.546Z,76.7
2017-07-31T07:14:39.278Z,76.9
2017-07-31T07:15:41.011Z,76.9
2017-07-31T07:16:42.822Z,76.8
2017-07-31T07:17:44.546Z,77.2
2017-07-31T07:18:46.303Z,77.2
2017-07-31T07:19:48.124Z,77.5
2017-07-31T07:20:49.881Z,77.4
2017-07-31T07:21:51.916Z,77.6
2017-07-31T07:22:53.768Z,77.3
2017-07-31T07:23:55.964Z,77.4
2017-07-31T07:24:57.831Z,77.7
2017-07-31T07:25:59.770Z,77.7
2017-07-31T07:27:01.799Z,77.6
2017-07-31T07:28:03.668Z,77.7
2017-07-31T07:29:05.538Z,77.8
2017-07-31T07:30:07.406Z,77.7
2017-07-31T07:31:09.302Z,77.7
2017-07-31T07:32:11.153Z,78.0
2017-07-31T07:33:13.119Z,78.1
2017-07-31T07:34:15.423Z,77.9
2017-07-31T07:35:17.387Z,78.1
2017-07-31T07:36:19.361Z,77.9
2017-07-31T07:37:21.280Z,77.8
2017-07-31T07:38:23.265Z,78.2
2017-07-31T07:39:25.737Z,78.1
2017-07-31T07:40:27.736Z,77.7
2017-07-31T07:41:29.704Z,78.0
2017-07-31T07:42:31.659Z,77.7
2017-07-31T07:43:33.708Z,77.5
2017-07-31T07:44:35.950Z,77.6
2017-07-31T07:45:37.986Z,77.8
2017-07-31T07:46:40.009Z,77.8
2017-07-31T07:47:42.033Z,77.2
2017-07-31T07:48:44.048Z,77.1
2017-07-31T07:49:46.428Z,77.5
2017-07-31T07:50:48.457Z,77.3
2017-07-31T07:51:50.559Z,77.3
2017-07-31T07:52:52.742Z,77.3
2017-07-31T07:53:54.773Z,77.5
2017-07-31T07:54:57.277Z,77.7
2017-07-31T07:55:59.312Z,77.7
2017-07-31T07:57:01.528Z,77.4
2017-07-31T07:58:04.345Z,77.7
2017-07-31T07:59:06.615Z,77.9
2017-07-31T08:00:08.864Z,77.5
2017-07-31T08:01:11.484Z,78.1
2017-07-31T08:02:14.058Z,77.8
2017-07-31T08:03:16.050Z,78.2
2017-07-31T08:04:18.876Z,78.3
2017-07-31T08:05:21.055Z,78.4
2017-07-31T08:06:23.062Z,78.5
2017-07-31T08:07:25.279Z,78.1
2017-07-31T08:08:27.432Z,78.6
2017-07-31T08:09:29.606Z,78.3
2017-07-31T08:10:32.031Z,78.4
2017-07-31T08:11:34.062Z,78.1
2017-07-31T08:12:36.131Z,78.4
2017-07-31T08:13:38.123Z,78.2
2017-07-31T08:14:41.565Z,77.1
2017-07-31T08:15:43.630Z,77.9
2017-07-31T08:16:45.606Z,77.6
2017-07-31T08:17:47.531Z,77.8
2017-07-31T08:18:49.491Z,77.5
2017-07-31T08:19:51.482Z,77.6
2017-07-31T08:20:53.763Z,77.2
2017-07-31T08:21:55.704Z,77.2
2017-07-31T08:22:57.635Z,77.5
2017-07-31T08:23:59.445Z,77.8
2017-07-31T08:25:01.249Z,77.5
2017-07-31T08:26:03.200Z,78.3
2017-07-31T08:27:05.138Z,78.0
2017-07-31T08:28:07.057Z,78.1
2017-07-31T08:29:09.038Z,78.3
2017-07-31T08:30:10.856Z,77.4
2017-07-31T08:31:12.753Z,77.9
2017-07-31T08:32:14.551Z,78.2
2017-07-31T08:33:16.372Z,77.6
2017-07-31T08:34:18.188Z,77.7
2017-07-31T08:35:20.040Z,77.9
2017-07-31T08:36:21.900Z,77.2
2017-07-31T08:37:23.654Z,77.2
2017-07-31T08:38:25.442Z,77.0
2017-07-31T08:39:27.282Z,76.7
2017-07-31T08:40:29.205Z,76.5
2017-07-31T08:41:30.984Z,76.6
2017-07-31T08:42:32.761Z,76.7
2017-07-31T08:43:34.710Z,76.6
2017-07-31T08:44:36.504Z,75.6
2017-07-31T08:45:38.396Z,75.5
2017-07-31T08:46:40.788Z,75.7
2017-07-31T08:47:42.570Z,75.8
2017-07-31T08:48:44.354Z,76.0
2017-07-31T08:49:46.072Z,76.0
2017-07-31T08:50:47.840Z,76.2
2017-07-31T08:51:50.185Z,75.9
2017-07-31T08:52:51.972Z,75.2
2017-07-31T08:53:53.921Z,75.5
2017-07-31T08:54:55.945Z,75.8
2017-07-31T08:55:57.714Z,75.7
2017-07-31T08:56:59.800Z,75.7
2017-07-31T08:58:01.518Z,76.0
2017-07-31T08:59:03.245Z,76.0
2017-07-31T09:00:05.165Z,76.0
2017-07-31T09:01:06.973Z,75.5
2017-07-31T09:02:09.124Z,75.6
2017-07-31T09:03:10.878Z,74.8
2017-07-31T09:04:12.682Z,75.0
2017-07-31T09:05:18.928Z,74.9
2017-07-31T09:06:20.634Z,74.9
2017-07-31T09:07:22.695Z,74.8
2017-07-31T09:08:24.462Z,74.7
2017-07-31T09:09:26.241Z,74.0
2017-07-31T09:10:28.430Z,72.3
2017-07-31T09:11:30.276Z,72.9
2017-07-31T09:12:32.417Z,73.7
2017-07-31T09:13:34.506Z,73.9
2017-07-31T09:14:36.387Z,73.8
2017-07-31T09:15:38.253Z,74.3
2017-07-31T09:16:40.206Z,74.5
2017-07-31T09:17:42.479Z,74.4
2017-07-31T09:18:44.422Z,74.6
2017-07-31T09:19:46.261Z,74.4
2017-07-31T09:20:48.218Z,73.9
2017-07-31T09:21:50.275Z,74.0
2017-07-31T09:22:53.139Z,73.3
2017-07-31T09:23:55.106Z,73.0
2017-07-31T09:24:57.057Z,72.8
2017-07-31T09:25:59.073Z,73.1
2017-07-31T09:27:01.019Z,73.1
2017-07-31T09:28:03.354Z,72.5
2017-07-31T09:29:05.335Z,72.5
2017-07-31T09:30:07.241Z,72.6
2017-07-31T09:31:09.028Z,72.4
2017-07-31T09:32:10.849Z,72.2
2017-07-31T09:33:13.225Z,72.2
2017-07-31T09:34:15.199Z,72.1
2017-07-31T09:35:17.122Z,69.4
2017-07-31T09:36:18.949Z,65.1
2017-07-31T09:37:20.748Z,67.8
2017-07-31T09:38:22.891Z,69.6
2017-07-31T09:39:24.769Z,67.6
2017-07-31T09:40:26.609Z,67.2
2017-07-31T09:41:28.502Z,68.7
2017-07-31T09:42:30.370Z,68.8
2017-07-31T09:43:32.742Z,68.7
2017-07-31T09:44:34.938Z,68.8
2017-07-31T09:45:36.769Z,69.0
2017-07-31T09:46:38.716Z,65.2
2017-07-31T09:47:40.510Z,63.9
2017-07-31T09:48:42.813Z,63.8
2017-07-31T09:49:44.600Z,61.3
2017-07-31T09:50:46.398Z,62.4
2017-07-31T09:51:48.341Z,63.9
2017-07-31T09:52:50.119Z,64.1
2017-07-31T09:53:52.407Z,64.5
2017-07-31T09:54:54.292Z,65.4
2017-07-31T09:55:56.262Z,65.0
2017-07-31T09:56:58.195Z,65.0
2017-07-31T09:58:00.052Z,65.4
2017-07-31T09:59:01.849Z,62.8
2017-07-31T10:00:03.779Z,56.8
2017-07-31T10:01:05.643Z,59.7
2017-07-31T10:02:07.443Z,59.3
2017-07-31T10:03:09.328Z,56.8
2017-07-31T10:04:11.479Z,55.1
2017-07-31T10:05:13.242Z,55.4
2017-07-31T10:06:15.101Z,56.3
2017-07-31T10:07:16.980Z,54.7
2017-07-31T10:08:18.728Z,55.5
2017-07-31T10:09:20.861Z,57.7
2017-07-31T10:10:22.686Z,58.3
2017-07-31T10:11:24.605Z,58.9
2017-07-31T10:12:26.491Z,57.7
2017-07-31T10:13:28.372Z,58.5
2017-07-31T10:14:30.621Z,59.2
2017-07-31T10:15:32.480Z,59.1
2017-07-31T10:16:34.234Z,58.0
2017-07-31T10:17:36.116Z,57.6
2017-07-31T10:18:37.864Z,57.5
2017-07-31T10:19:39.970Z,56.2
2017-07-31T10:20:42.031Z,57.3
2017-07-31T10:21:43.779Z,55.0
2017-07-31T10:22:45.483Z,55.4
2017-07-31T10:23:47.219Z,53.6
2017-07-31T10:24:49.349Z,53.4
2017-07-31T10:25:51.179Z,55.6
2017-07-31T10:26:52.934Z,56.9
2017-07-31T10:27:54.665Z,56.2
2017-07-31T10:28:56.479Z,55.2
2017-07-31T10:29:58.687Z,54.3
2017-07-31T10:31:00.459Z,51.8
2017-07-31T10:32:02.331Z,52.1
2017-07-31T10:33:04.092Z,52.2
2017-07-31T10:34:05.963Z,53.1
2017-07-31T10:35:07.919Z,52.2
2017-07-31T10:36:10.151Z,52.0
2017-07-31T10:37:12.026Z,53.1
2017-07-31T10:38:13.800Z,52.7
2017-07-31T10:39:15.528Z,53.1
2017-07-31T10:40:17.277Z,49.2
2017-07-31T10:41:19.465Z,49.3
2017-07-31T10:42:21.197Z,50.3
2017-07-31T10:43:22.962Z,50.6
2017-07-31T10:44:24.693Z,51.3
2017-07-31T10:45:26.448Z,51.3
2017-07-31T10:46:28.484Z,51.0
2017-07-31T10:47:30.196Z,51.5
2017-07-31T10:48:31.960Z,50.4
2017-07-31T10:49:33.688Z,50.0
2017-07-31T10:50:35.453Z,50.4
2017-07-31T10:51:37.531Z,52.0
2017-07-31T10:52:39.252Z,52.6
2017-07-31T10:53:41.025Z,53.0
2017-07-31T10:54:42.860Z,54.1
2017-07-31T10:55:44.612Z,52.3
2017-07-31T10:56:46.754Z,53.7
2017-07-31T10:57:48.523Z,53.4
2017-07-31T10:58:50.262Z,53.7
2017-07-31T10:59:52.065Z,54.1
2017-07-31T11:00:53.872Z,53.7
2017-07-31T11:01:55.916Z,52.1
2017-07-31T11:02:57.650Z,51.5
2017-07-31T11:03:59.428Z,49.0
2017-07-31T11:05:01.357Z,49.6
2017-07-31T11:06:03.112Z,49.2
2017-07-31T11:07:05.206Z,48.7
2017-07-31T11:08:06.979Z,48.5
2017-07-31T11:09:08.745Z,50.3
2017-07-31T11:10:10.621Z,49.7
2017-07-31T11:11:12.570Z,45.8
2017-07-31T11:12:14.737Z,44.8
2017-07-31T11:13:16.476Z,45.1
2017-07-31T11:14:27.652Z,45.0
2017-07-31T11:15:34.380Z,44.0
2017-07-31T11:16:36.233Z,45.4
2017-07-31T11:17:38.383Z,43.9
2017-07-31T11:18:40.121Z,44.5
2017-07-31T11:19:42.138Z,44.1
2017-07-31T11:20:44.159Z,45.1
2017-07-31T11:21:46.286Z,45.0
2017-07-31T11:22:48.554Z,45.4
2017-07-31T11:23:50.367Z,43.9
2017-07-31T11:24:52.109Z,46.8
2017-07-31T11:25:53.919Z,46.8
2017-07-31T11:26:55.720Z,48.2
2017-07-31T11:27:57.851Z,48.9
2017-07-31T11:28:59.636Z,48.1
2017-07-31T11:30:01.466Z,46.9
2017-07-31T11:31:03.204Z,46.8
2017-07-31T11:32:04.963Z,44.6
2017-07-31T11:33:07.040Z,44.4
2017-07-31T11:34:08.757Z,43.6
2017-07-31T11:35:10.477Z,43.6
2017-07-31T11:36:12.339Z,42.0
2017-07-31T11:37:14.192Z,42.6
2017-07-31T11:38:16.322Z,41.9
2017-07-31T11:39:18.528Z,42.5
2017-07-31T11:40:20.213Z,43.5
2017-07-31T11:41:22.120Z,44.8
2017-07-31T11:42:23.823Z,43.7
2017-07-31T11:43:25.770Z,44.4
2017-07-31T11:44:27.459Z,42.5
2017-07-31T11:45:29.188Z,41.5
2017-07-31T11:46:30.915Z,42.2
2017-07-31T11:47:32.637Z,43.7
2017-07-31T11:48:34.739Z,42.3
2017-07-31T11:49:36.450Z,42.7
2017-07-31T11:50:38.166Z,42.1
2017-07-31T11:51:39.878Z,39.3
2017-07-31T11:52:41.602Z,40.9
2017-07-31T11:53:43.685Z,40.5
2017-07-31T11:54:45.393Z,40.0
2017-07-31T11:55:47.125Z,40.6
2017-07-31T11:56:49.017Z,38.4
2017-07-31T11:57:50.787Z,37.7
2017-07-31T11:58:53.158Z,35.7
2017-07-31T11:59:54.969Z,35.9
2017-07-31T12:00:56.738Z,37.8
2017-07-31T12:01:58.491Z,37.0
2017-07-31T12:03:00.236Z,37.5
2017-07-31T12:04:02.310Z,36.3
2017-07-31T12:05:04.069Z,35.2
2017-07-31T12:06:05.790Z,36.9
2017-07-31T12:07:07.504Z,36.4
2017-07-31T12:08:09.213Z,36.7
2017-07-31T12:09:11.318Z,36.1
2017-07-31T12:10:16.814Z,36.3
2017-07-31T12:11:18.459Z,37.4
2017-07-31T12:12:20.194Z,35.7
2017-07-31T12:13:21.930Z,36.1
2017-07-31T12:14:23.993Z,35.4
2017-07-31T12:15:25.719Z,36.9
2017-07-31T12:16:27.529Z,36.8
2017-07-31T12:17:29.269Z,37.5
2017-07-31T12:18:31.015Z,37.4
2017-07-31T12:19:33.162Z,39.3
2017-07-31T12:20:34.902Z,40.1
2017-07-31T12:21:36.701Z,40.2
2017-07-31T12:22:38.642Z,39.7
2017-07-31T12:23:40.472Z,41.4
2017-07-31T12:24:42.816Z,42.8
2017-07-31T12:25:44.658Z,40.9
2017-07-31T12:27:28.259Z,40.1
2017-07-31T12:28:30.223Z,40.4
2017-07-31T12:29:34.176Z,40.8
2017-07-31T12:30:36.202Z,37.5
2017-07-31T12:31:37.964Z,38.9
2017-07-31T12:32:39.786Z,38.6
2017-07-31T12:33:41.534Z,37.2
2017-07-31T12:34:43.308Z,37.3
2017-07-31T12:35:45.439Z,38.7
2017-07-31T12:36:47.161Z,40.8
2017-07-31T12:37:49.845Z,40.4
2017-07-31T12:38:51.593Z,39.8
2017-07-31T12:39:53.341Z,39.9
2017-07-31T12:40:55.357Z,39.2
2017-07-31T12:41:57.075Z,38.0
2017-07-31T12:42:58.853Z,40.3
2017-07-31T12:44:00.607Z,38.5
2017-07-31T12:45:02.484Z,36.9
2017-07-31T12:46:04.258Z,36.3
2017-07-31T12:47:06.368Z,35.7
2017-07-31T12:48:08.251Z,36.1
2017-07-31T12:49:10.002Z,35.7
2017-07-31T12:50:11.810Z,35.5
2017-07-31T12:51:13.645Z,36.2
2017-07-31T12:52:15.700Z,32.9
2017-07-31T12:53:17.510Z,35.3
2017-07-31T12:54:19.304Z,34.0
2017-07-31T12:55:21.046Z,34.5
2017-07-31T12:56:22.823Z,34.2
2017-07-31T12:57:24.607Z,33.1
2017-07-31T12:58:26.324Z,32.5
2017-07-31T12:59:28.055Z,34.5
2017-07-31T13:00:29.802Z,34.5
2017-07-31T13:01:31.558Z,34.4
2017-07-31T13:02:33.646Z,32.7
2017-07-31T13:03:35.360Z,33.5
2017-07-31T13:04:37.068Z,37.3
2017-07-31T13:05:38.808Z,37.0
2017-07-31T13:06:41.081Z,36.4
2017-07-31T13:07:43.272Z,36.5
2017-07-31T13:08:44.979Z,33.7
2017-07-31T13:09:46.760Z,34.6
2017-07-31T13:10:48.660Z,35.2
2017-07-31T13:11:50.596Z,35.3
2017-07-31T13:12:52.900Z,33.2
2017-07-31T13:13:54.909Z,32.4
2017-07-31T13:14:56.926Z,32.8
2017-07-31T13:15:58.935Z,32.7
2017-07-31T13:17:01.050Z,33.8
2017-07-31T13:18:03.478Z,35.3
2017-07-31T13:19:05.581Z,33.2
2017-07-31T13:20:07.676Z,32.6
2017-07-31T13:21:09.681Z,33.3
2017-07-31T13:22:11.535Z,34.5
2017-07-31T13:23:13.411Z,36.3
2017-07-31T13:24:15.346Z,36.8
2017-07-31T13:25:17.126Z,33.2
2017-07-31T13:26:18.862Z,34.5
2017-07-31T13:27:20.579Z,35.3
2017-07-31T13:28:22.279Z,36.2
2017-07-31T13:29:24.011Z,36.4
2017-07-31T13:30:26.018Z,36.5
2017-07-31T13:31:28.036Z,35.9
2017-07-31T13:32:30.146Z,35.9
2017-07-31T13:33:31.932Z,37.6
2017-07-31T13:34:33.799Z,38.4
2017-07-31T13:35:35.588Z,38.1
2017-07-31T13:36:37.353Z,36.3
2017-07-31T13:37:39.541Z,36.1
2017-07-31T13:38:41.311Z,35.9
2017-07-31T13:39:43.155Z,37.1
2017-07-31T13:40:44.918Z,38.0
2017-07-31T13:41:46.744Z,37.3
2017-07-31T13:42:48.894Z,36.4
2017-07-31T13:43:50.648Z,35.0
2017-07-31T13:44:52.562Z,35.0
2017-07-31T13:45:54.467Z,34.5